createdAt,value
2022-11-13T00:01:11.139Z,4.48
2022-11-13T00:03:39.482Z,4.54
2022-11-13T00:06:07.793Z,4.59
2022-11-13T00:08:35.809Z,4.64
2022-11-13T00:11:05.243Z,4.63
2022-11-13T00:13:33.495Z,4.63
2022-11-13T00:16:03.834Z,4.61
2022-11-13T00:18:35.760Z,4.62
2022-11-13T00:21:06.879Z,4.61
2022-11-13T00:23:36.629Z,4.64
2022-11-13T00:26:06.642Z,4.66
2022-11-13T00:28:34.885Z,4.71
2022-11-13T00:31:03.558Z,4.70
2022-11-13T00:34:01.864Z,4.67
2022-11-13T00:36:26.307Z,4.67
2022-11-13T00:38:55.468Z,4.71
2022-11-13T00:41:23.981Z,4.74
2022-11-13T00:43:51.950Z,4.79
2022-11-13T00:46:20.307Z,4.85
2022-11-13T00:48:49.851Z,4.92
2022-11-13T00:51:19.618Z,4.99
2022-11-13T00:53:47.673Z,5.05
2022-11-13T00:56:15.784Z,5.09
2022-11-13T00:58:43.792Z,5.07
2022-11-13T01:01:14.042Z,5.01
2022-11-13T01:03:42.351Z,5.02
2022-11-13T01:06:13.700Z,5.06
2022-11-13T01:08:42.113Z,5.11
2022-11-13T01:11:11.374Z,5.16
2022-11-13T01:13:39.717Z,5.20
2022-11-13T01:16:09.829Z,5.21
2022-11-13T01:18:37.961Z,5.23
2022-11-13T01:21:07.589Z,5.21
2022-11-13T01:23:37.470Z,5.16
2022-11-13T01:26:08.071Z,5.18
2022-11-13T01:28:36.121Z,5.17
2022-11-13T01:31:06.846Z,5.14
2022-11-13T01:33:34.912Z,5.16
2022-11-13T01:36:03.849Z,5.17
2022-11-13T01:38:35.908Z,5.18
2022-11-13T01:41:07.188Z,5.16
2022-11-13T01:43:37.678Z,5.14
2022-11-13T01:46:21.563Z,5.14
2022-11-13T01:48:52.882Z,5.11
2022-11-13T01:51:28.067Z,5.11
2022-11-13T01:53:57.116Z,5.12
2022-11-13T01:56:26.869Z,5.11
2022-11-13T01:58:59.718Z,5.08
2022-11-13T02:01:27.800Z,5.11
2022-11-13T02:03:55.795Z,5.13
2022-11-13T02:06:23.871Z,5.15
2022-11-13T02:08:52.340Z,5.18
2022-11-13T02:11:21.477Z,5.20
2022-11-13T02:13:51.341Z,5.17
2022-11-13T02:16:20.559Z,5.18
2022-11-13T02:18:48.722Z,5.14
2022-11-13T02:21:33.774Z,5.08
2022-11-13T02:24:18.093Z,5.07
2022-11-13T02:26:46.507Z,5.08
2022-11-13T02:29:14.564Z,5.09
2022-11-13T02:31:42.688Z,5.07
2022-11-13T02:34:10.691Z,5.14
2022-11-13T02:36:38.794Z,5.12
2022-11-13T02:39:10.593Z,5.08
2022-11-13T02:41:39.944Z,5.07
2022-11-13T02:44:08.457Z,5.06
2022-11-13T02:46:36.772Z,5.04
2022-11-13T02:49:05.023Z,5.04
2022-11-13T02:51:33.113Z,5.04
2022-11-13T02:54:01.175Z,5.07
2022-11-13T02:56:29.207Z,5.12
2022-11-13T02:58:58.646Z,5.17
2022-11-13T03:01:26.748Z,5.20
2022-11-13T03:03:58.481Z,5.23
2022-11-13T03:06:26.842Z,5.22
2022-11-13T03:08:54.831Z,5.21
2022-11-13T03:11:22.905Z,5.25
2022-11-13T03:13:50.875Z,5.26
2022-11-13T03:16:20.369Z,5.26
2022-11-13T03:18:48.422Z,5.31
2022-11-13T03:21:17.282Z,5.35
2022-11-13T03:23:46.212Z,5.38
2022-11-13T03:26:17.608Z,5.43
2022-11-13T03:28:45.615Z,5.52
2022-11-13T03:31:13.827Z,5.56
2022-11-13T03:33:43.544Z,5.59
2022-11-13T03:36:11.653Z,5.63
2022-11-13T03:38:39.817Z,5.68
2022-11-13T03:41:07.843Z,5.71
2022-11-13T03:43:35.983Z,5.65
2022-11-13T03:46:04.127Z,5.49
2022-11-13T03:48:32.341Z,5.38
2022-11-13T03:51:01.971Z,5.32
2022-11-13T03:53:29.949Z,5.24
2022-11-13T03:55:58.001Z,5.13
2022-11-13T03:58:26.278Z,5.11
2022-11-13T04:00:55.672Z,5.13
2022-11-13T04:03:24.134Z,4.86
2022-11-13T04:05:52.658Z,4.84
2022-11-13T04:08:22.206Z,4.70
2022-11-13T04:10:50.227Z,4.67
2022-11-13T04:13:18.278Z,4.56
2022-11-13T04:15:46.442Z,4.47
2022-11-13T04:18:14.491Z,4.37
2022-11-13T04:20:42.442Z,4.30
2022-11-13T04:23:12.708Z,4.18
2022-11-13T04:25:42.168Z,4.16
2022-11-13T04:28:10.779Z,4.20
2022-11-13T04:30:39.085Z,4.20
2022-11-13T04:33:07.667Z,4.25
2022-11-13T04:35:35.831Z,4.31
2022-11-13T04:38:04.045Z,4.35
2022-11-13T04:40:32.043Z,4.42
2022-11-13T04:43:00.393Z,4.43
2022-11-13T04:45:28.669Z,4.49
2022-11-13T04:47:56.840Z,4.62
2022-11-13T04:50:25.120Z,4.75
2022-11-13T04:52:53.138Z,4.78
2022-11-13T04:55:21.281Z,4.82
2022-11-13T04:57:51.653Z,4.88
2022-11-13T05:00:21.424Z,4.94
2022-11-13T05:02:49.488Z,4.99
2022-11-13T05:05:17.822Z,4.93
2022-11-13T05:07:45.925Z,4.92
2022-11-13T05:10:14.293Z,4.99
2022-11-13T05:12:42.295Z,4.87
2022-11-13T05:15:10.802Z,4.98
2022-11-13T05:17:40.222Z,4.98
2022-11-13T05:20:09.491Z,4.85
2022-11-13T05:22:37.578Z,4.88
2022-11-13T05:25:06.217Z,4.78
2022-11-13T05:27:34.238Z,4.63
2022-11-13T05:30:02.242Z,4.58
2022-11-13T05:32:30.185Z,4.60
2022-11-13T05:34:59.530Z,4.67
2022-11-13T05:37:29.508Z,4.64
2022-11-13T05:39:57.548Z,4.67
2022-11-13T05:42:25.949Z,4.72
2022-11-13T05:44:53.918Z,4.78
2022-11-13T05:47:21.948Z,4.81
2022-11-13T05:49:49.988Z,4.78
2022-11-13T05:52:19.414Z,4.81
2022-11-13T05:54:47.474Z,4.72
2022-11-13T05:57:15.510Z,4.60
2022-11-13T05:59:43.613Z,4.52
2022-11-13T06:02:11.678Z,4.54
2022-11-13T06:04:39.806Z,4.52
2022-11-13T06:07:07.912Z,4.55
2022-11-13T06:09:37.377Z,4.58
2022-11-13T06:12:05.935Z,4.61
2022-11-13T06:14:34.006Z,4.58
2022-11-13T06:17:02.061Z,4.66
2022-11-13T06:19:30.128Z,4.76
2022-11-13T06:21:58.121Z,4.76
2022-11-13T06:24:26.162Z,4.90
2022-11-13T06:26:55.588Z,4.76
2022-11-13T06:29:23.685Z,4.79
2022-11-13T06:31:51.791Z,4.75
2022-11-13T06:34:19.975Z,4.85
2022-11-13T06:36:47.956Z,4.79
2022-11-13T06:39:16.263Z,4.99
2022-11-13T06:41:44.299Z,5.13
2022-11-13T06:44:13.691Z,5.31
2022-11-13T06:46:41.809Z,5.36
2022-11-13T06:49:10.087Z,5.48
2022-11-13T06:51:38.048Z,5.63
2022-11-13T06:54:06.474Z,5.75
2022-11-13T06:56:34.468Z,5.87
2022-11-13T06:59:06.281Z,5.71
2022-11-13T07:01:37.734Z,5.56
2022-11-13T07:04:06.495Z,5.45
2022-11-13T07:06:40.025Z,5.40
2022-11-13T07:09:08.545Z,5.30
2022-11-13T07:11:36.926Z,5.28
2022-11-13T07:14:06.570Z,5.19
2022-11-13T07:16:56.373Z,5.22
2022-11-13T07:19:23.998Z,5.33
2022-11-13T07:21:51.993Z,5.39
2022-11-13T07:24:19.951Z,5.41
2022-11-13T07:26:48.135Z,5.43
2022-11-13T07:29:16.231Z,5.44
2022-11-13T07:31:44.201Z,5.37
2022-11-13T07:34:12.172Z,5.44
2022-11-13T07:36:41.628Z,5.48
2022-11-13T07:39:09.634Z,5.58
2022-11-13T07:41:37.560Z,5.70
2022-11-13T07:44:09.110Z,5.79
2022-11-13T07:46:37.758Z,5.83
2022-11-13T07:49:05.950Z,5.93
2022-11-13T07:51:35.171Z,6.05
2022-11-13T07:54:04.770Z,6.07
2022-11-13T07:56:32.830Z,6.08
2022-11-13T07:59:00.893Z,6.15
2022-11-13T08:01:28.946Z,6.22
2022-11-13T08:03:57.007Z,6.31
2022-11-13T08:06:27.669Z,6.42
2022-11-13T08:08:55.792Z,6.50
2022-11-13T08:11:25.304Z,6.56
2022-11-13T08:13:53.981Z,6.57
2022-11-13T08:16:23.529Z,6.60
2022-11-13T08:18:53.220Z,6.61
2022-11-13T08:21:21.617Z,6.70
2022-11-13T08:23:50.375Z,6.74
2022-11-13T08:26:18.809Z,6.78
2022-11-13T08:28:48.893Z,6.85
2022-11-13T08:31:18.470Z,7.00
2022-11-13T08:33:46.637Z,7.11
2022-11-13T08:36:14.782Z,7.11
2022-11-13T08:38:42.833Z,7.20
2022-11-13T08:41:10.905Z,7.27
2022-11-13T08:43:39.138Z,7.39
2022-11-13T08:46:08.593Z,7.45
2022-11-13T08:48:37.793Z,7.47
2022-11-13T08:51:06.038Z,7.51
2022-11-13T08:53:34.230Z,7.61
2022-11-13T08:56:03.094Z,7.71
2022-11-13T08:58:31.614Z,7.85
2022-11-13T09:01:03.098Z,7.92
2022-11-13T09:03:38.807Z,8.01
2022-11-13T09:06:07.785Z,8.12
2022-11-13T09:08:35.906Z,8.21
2022-11-13T09:11:05.364Z,8.24
2022-11-13T09:13:33.630Z,8.21
2022-11-13T09:16:02.463Z,8.20
2022-11-13T09:18:32.254Z,8.25
2022-11-13T09:21:03.075Z,8.30
2022-11-13T09:23:31.154Z,8.26
2022-11-13T09:26:03.158Z,8.21
2022-11-13T09:28:31.523Z,8.22
2022-11-13T09:30:59.834Z,8.28
2022-11-13T09:33:27.880Z,8.36
2022-11-13T09:35:57.308Z,8.42
2022-11-13T09:38:25.662Z,8.35
2022-11-13T09:40:58.865Z,8.31
2022-11-13T09:43:32.385Z,8.27
2022-11-13T09:46:04.279Z,8.23
2022-11-13T09:48:36.529Z,8.27
2022-11-13T09:51:13.138Z,8.37
2022-11-13T09:53:41.926Z,8.40
2022-11-13T09:56:20.962Z,8.51
2022-11-13T09:58:55.329Z,8.56
2022-11-13T10:01:29.874Z,8.66
2022-11-13T10:04:04.137Z,8.79
2022-11-13T10:06:45.695Z,8.83
2022-11-13T10:09:25.988Z,8.96
2022-11-13T10:11:56.861Z,9.02
2022-11-13T10:14:39.133Z,8.99
2022-11-13T10:17:16.456Z,8.98
2022-11-13T10:19:57.686Z,8.83
2022-11-13T10:22:33.431Z,8.80
2022-11-13T10:25:11.733Z,8.83
2022-11-13T10:27:40.499Z,8.79
2022-11-13T10:30:16.193Z,8.64
2022-11-13T10:32:46.611Z,8.60
2022-11-13T10:35:31.165Z,8.56
2022-11-13T10:38:08.098Z,8.64
2022-11-13T10:40:38.902Z,8.68
2022-11-13T10:43:14.634Z,8.68
2022-11-13T10:45:43.210Z,8.62
2022-11-13T10:48:21.890Z,8.38
2022-11-13T10:50:58.241Z,8.33
2022-11-13T10:53:34.125Z,8.34
2022-11-13T10:56:02.153Z,8.25
2022-11-13T10:58:30.435Z,8.19
2022-11-13T11:00:58.681Z,8.20
2022-11-13T11:03:29.391Z,8.18
2022-11-13T11:05:58.787Z,8.15
2022-11-13T11:08:32.390Z,8.19
2022-11-13T11:11:20.427Z,8.25
2022-11-13T11:13:49.900Z,8.25
2022-11-13T11:16:22.130Z,8.36
2022-11-13T11:18:55.133Z,8.25
2022-11-13T11:21:28.683Z,8.39
2022-11-13T11:24:05.806Z,8.41
2022-11-13T11:26:38.950Z,8.46
2022-11-13T11:29:17.364Z,8.43
2022-11-13T11:31:51.836Z,8.44
2022-11-13T11:34:23.407Z,8.50
2022-11-13T11:37:08.199Z,8.55
2022-11-13T11:39:43.774Z,8.73
2022-11-13T11:42:20.918Z,8.84
2022-11-13T11:45:04.903Z,8.98
2022-11-13T11:47:34.731Z,9.09
2022-11-13T11:50:03.215Z,9.20
2022-11-13T11:52:54.082Z,9.33
2022-11-13T11:55:39.798Z,9.39
2022-11-13T11:58:27.933Z,9.53
2022-11-13T12:01:05.834Z,9.50
2022-11-13T12:04:02.817Z,9.43
2022-11-13T12:06:44.378Z,9.45
2022-11-13T12:09:20.559Z,9.56
2022-11-13T12:11:56.432Z,9.69
2022-11-13T12:14:38.175Z,9.93
2022-11-13T12:17:21.386Z,10.20
2022-11-13T12:20:02.032Z,10.33
2022-11-13T12:22:39.892Z,10.49
2022-11-13T12:25:19.742Z,10.50
2022-11-13T12:27:58.918Z,10.68
2022-11-13T12:30:36.689Z,11.40
2022-11-13T12:33:16.331Z,12.76
2022-11-13T12:35:47.994Z,13.16
2022-11-13T12:38:27.714Z,12.76
2022-11-13T12:41:03.989Z,12.18
2022-11-13T12:44:01.107Z,12.30
2022-11-13T12:46:38.332Z,13.33
2022-11-13T12:49:17.833Z,14.17
2022-11-13T12:51:55.512Z,15.63
2022-11-13T12:54:28.505Z,16.65
2022-11-13T12:57:09.162Z,17.56
2022-11-13T12:59:42.165Z,17.77
2022-11-13T13:02:32.945Z,18.27
2022-11-13T13:05:14.915Z,18.97
2022-11-13T13:08:15.746Z,19.72
2022-11-13T13:10:56.229Z,19.92
2022-11-13T13:13:31.987Z,19.46
2022-11-13T13:16:06.956Z,19.81
2022-11-13T13:18:37.402Z,19.28
2022-11-13T13:21:08.776Z,18.78
2022-11-13T13:23:40.524Z,17.73
2022-11-13T13:26:17.549Z,17.09
2022-11-13T13:28:50.571Z,16.61
2022-11-13T13:31:30.891Z,15.75
2022-11-13T13:34:23.328Z,15.14
2022-11-13T13:37:03.489Z,13.96
2022-11-13T13:39:41.193Z,12.71
2022-11-13T13:42:27.537Z,11.85
2022-11-13T13:45:09.471Z,11.28
2022-11-13T13:47:41.679Z,10.78
2022-11-13T13:50:16.453Z,10.29
2022-11-13T13:52:48.873Z,9.80
2022-11-13T13:55:23.057Z,9.50
2022-11-13T13:57:51.213Z,9.25
2022-11-13T14:00:21.801Z,9.05
2022-11-13T14:02:53.744Z,8.83
2022-11-13T14:05:28.774Z,8.63
2022-11-13T14:07:56.895Z,8.48
2022-11-13T14:10:27.990Z,8.40
2022-11-13T14:12:57.496Z,8.24
2022-11-13T14:15:29.433Z,8.00
2022-11-13T14:18:10.275Z,7.88
2022-11-13T14:20:46.768Z,7.72
2022-11-13T14:23:20.734Z,7.61
2022-11-13T14:25:50.029Z,7.47
2022-11-13T14:28:21.956Z,7.34
2022-11-13T14:30:55.964Z,7.31
2022-11-13T14:33:30.627Z,7.33
2022-11-13T14:35:59.623Z,7.17
2022-11-13T14:38:30.036Z,7.25
2022-11-13T14:40:59.275Z,7.24
2022-11-13T14:43:31.160Z,7.23
2022-11-13T14:46:01.002Z,7.27
2022-11-13T14:48:32.409Z,7.31
2022-11-13T14:51:02.441Z,7.30
2022-11-13T14:53:32.855Z,7.29
2022-11-13T14:56:02.732Z,7.20
2022-11-13T14:58:32.816Z,7.06
2022-11-13T15:01:01.401Z,7.04
2022-11-13T15:03:31.109Z,6.94
2022-11-13T15:05:59.533Z,6.83
2022-11-13T15:08:28.462Z,6.87
2022-11-13T15:10:58.535Z,6.92
2022-11-13T15:13:26.854Z,6.97
2022-11-13T15:15:55.178Z,6.93
2022-11-13T15:18:23.290Z,6.96
2022-11-13T15:20:52.808Z,6.95
2022-11-13T15:23:24.578Z,6.97
2022-11-13T15:25:52.908Z,6.98
2022-11-13T15:28:20.920Z,6.98
2022-11-13T15:30:48.966Z,6.93
2022-11-13T15:33:17.881Z,6.87
2022-11-13T15:35:45.877Z,6.83
2022-11-13T15:38:15.220Z,6.83
2022-11-13T15:40:43.208Z,6.80
2022-11-13T15:43:20.332Z,6.80
2022-11-13T15:45:48.308Z,6.88
2022-11-13T15:48:16.429Z,6.89
2022-11-13T15:50:44.449Z,6.86
2022-11-13T15:53:13.281Z,6.84
2022-11-13T15:55:43.254Z,6.77
2022-11-13T15:58:16.096Z,6.76
2022-11-13T16:00:46.189Z,6.74
2022-11-13T16:03:14.268Z,6.69
2022-11-13T16:05:42.290Z,6.67
2022-11-13T16:08:14.899Z,6.69
2022-11-13T16:10:44.402Z,6.67
2022-11-13T16:13:13.215Z,6.67
2022-11-13T16:15:41.311Z,6.66
2022-11-13T16:18:20.957Z,6.69
2022-11-13T16:20:49.631Z,6.69
2022-11-13T16:23:18.557Z,6.62
2022-11-13T16:25:49.497Z,6.58
2022-11-13T16:28:18.478Z,6.49
2022-11-13T16:30:47.315Z,6.51
2022-11-13T16:33:15.437Z,6.56
2022-11-13T16:35:43.433Z,6.51
2022-11-13T16:38:13.918Z,6.45
2022-11-13T16:40:43.373Z,6.42
2022-11-13T16:43:13.235Z,6.42
2022-11-13T16:45:41.249Z,6.47
2022-11-13T16:48:14.042Z,6.52
2022-11-13T16:50:42.763Z,6.51
2022-11-13T16:53:11.469Z,6.47
2022-11-13T16:55:39.677Z,6.50
2022-11-13T16:58:07.779Z,6.52
2022-11-13T17:00:37.217Z,6.48
2022-11-13T17:03:05.785Z,6.52
2022-11-13T17:05:33.788Z,6.56
2022-11-13T17:08:01.930Z,6.57
2022-11-13T17:10:31.875Z,6.59
2022-11-13T17:13:00.939Z,6.56
2022-11-13T17:15:28.975Z,6.56
2022-11-13T17:17:59.748Z,6.54
2022-11-13T17:20:27.898Z,6.50
2022-11-13T17:22:56.117Z,6.37
2022-11-13T17:25:26.856Z,6.33
2022-11-13T17:27:55.441Z,6.24
2022-11-13T17:30:23.585Z,6.27
2022-11-13T17:32:51.727Z,6.29
2022-11-13T17:35:21.140Z,6.29
2022-11-13T17:37:49.150Z,6.28
2022-11-13T17:40:17.829Z,6.26
2022-11-13T17:42:48.098Z,6.27
2022-11-13T17:45:16.681Z,6.26
2022-11-13T17:47:44.703Z,6.24
2022-11-13T17:50:12.748Z,6.23
2022-11-13T17:52:42.129Z,6.23
2022-11-13T17:55:13.080Z,6.16
2022-11-13T17:57:41.094Z,6.20
2022-11-13T18:00:10.677Z,6.21
2022-11-13T18:02:39.671Z,6.25
2022-11-13T18:05:10.048Z,6.28
2022-11-13T18:07:38.425Z,6.25
2022-11-13T18:10:10.970Z,6.25
2022-11-13T18:12:39.306Z,6.26
2022-11-13T18:15:09.095Z,6.30
2022-11-13T18:17:37.368Z,6.35
2022-11-13T18:20:06.170Z,6.36
2022-11-13T18:22:34.454Z,6.35
2022-11-13T18:25:03.461Z,6.32
2022-11-13T18:27:33.056Z,6.23
2022-11-13T18:30:01.242Z,6.21
2022-11-13T18:32:29.465Z,6.21
2022-11-13T18:34:57.509Z,6.27
2022-11-13T18:37:25.685Z,6.33
2022-11-13T18:39:53.839Z,6.25
2022-11-13T18:42:22.231Z,6.25
2022-11-13T18:44:51.763Z,6.21
2022-11-13T18:47:20.114Z,6.25
2022-11-13T18:49:48.263Z,6.24
2022-11-13T18:52:16.505Z,6.23
2022-11-13T18:54:44.546Z,6.21
2022-11-13T18:57:12.627Z,6.18
2022-11-13T18:59:40.690Z,6.17
2022-11-13T19:02:12.824Z,6.12
2022-11-13T19:04:40.942Z,6.17
2022-11-13T19:07:12.283Z,6.18
2022-11-13T19:09:45.075Z,6.10
2022-11-13T19:12:13.162Z,6.06
2022-11-13T19:14:41.212Z,6.11
2022-11-13T19:17:09.878Z,6.05
2022-11-13T19:19:41.808Z,6.05
2022-11-13T19:22:09.938Z,6.07
2022-11-13T19:24:38.042Z,6.04
2022-11-13T19:27:06.136Z,6.05
2022-11-13T19:29:34.202Z,6.07
2022-11-13T19:32:02.158Z,6.10
2022-11-13T19:34:30.256Z,6.12
2022-11-13T19:36:59.712Z,6.13
2022-11-13T19:39:27.774Z,6.14
2022-11-13T19:41:55.786Z,6.13
2022-11-13T19:44:23.763Z,6.09
2022-11-13T19:46:51.862Z,6.13
2022-11-13T19:49:19.914Z,6.22
2022-11-13T19:51:47.886Z,6.21
2022-11-13T19:54:17.761Z,6.18
2022-11-13T19:56:45.728Z,6.21
2022-11-13T19:59:14.032Z,6.19
2022-11-13T20:01:43.451Z,6.19
2022-11-13T20:04:13.054Z,6.20
2022-11-13T20:06:41.273Z,6.21
2022-11-13T20:09:09.318Z,6.15
2022-11-13T20:11:38.782Z,6.10
2022-11-13T20:14:06.860Z,6.04
2022-11-13T20:16:34.976Z,5.99
2022-11-13T20:19:03.853Z,6.02
2022-11-13T20:21:32.603Z,6.01
2022-11-13T20:24:01.449Z,6.04
2022-11-13T20:26:29.931Z,6.05
2022-11-13T20:28:59.429Z,6.08
2022-11-13T20:31:27.882Z,6.03
2022-11-13T20:33:57.405Z,5.97
2022-11-13T20:36:26.302Z,5.95
2022-11-13T20:38:56.236Z,5.98
2022-11-13T20:41:25.126Z,5.96
2022-11-13T20:43:55.805Z,5.95
2022-11-13T20:46:25.349Z,5.95
2022-11-13T20:48:53.355Z,5.91
2022-11-13T20:51:23.785Z,5.91
2022-11-13T20:53:52.365Z,5.93
2022-11-13T20:56:22.274Z,5.88
2022-11-13T20:58:50.735Z,5.83
2022-11-13T21:01:21.352Z,5.90
2022-11-13T21:03:50.737Z,5.95
2022-11-13T21:06:22.313Z,5.97
2022-11-13T21:08:50.517Z,5.99
2022-11-13T21:11:22.018Z,5.99
2022-11-13T21:13:51.287Z,6.04
2022-11-13T21:16:19.370Z,6.06
2022-11-13T21:18:47.558Z,6.09
2022-11-13T21:21:19.386Z,6.03
2022-11-13T21:23:48.313Z,5.98
2022-11-13T21:26:17.337Z,5.93
2022-11-13T21:28:45.863Z,5.88
2022-11-13T21:31:15.942Z,5.82
2022-11-13T21:33:45.353Z,5.84
2022-11-13T21:36:15.891Z,5.83
2022-11-13T21:38:45.457Z,5.78
2022-11-13T21:41:24.887Z,5.74
2022-11-13T21:43:57.951Z,5.65
2022-11-13T21:46:29.123Z,5.58
2022-11-13T21:48:58.669Z,5.49
2022-11-13T21:51:26.997Z,5.47
2022-11-13T21:53:56.840Z,5.50
2022-11-13T21:56:25.599Z,5.54
2022-11-13T21:58:53.929Z,5.58
2022-11-13T22:01:23.697Z,5.60
2022-11-13T22:03:52.246Z,5.57
2022-11-13T22:06:22.479Z,5.56
2022-11-13T22:08:57.433Z,5.61
2022-11-13T22:11:25.697Z,5.65
2022-11-13T22:13:54.023Z,5.70
2022-11-13T22:16:22.864Z,5.77
2022-11-13T22:18:54.931Z,5.84
2022-11-13T22:21:23.957Z,5.89
2022-11-13T22:23:52.384Z,5.80
2022-11-13T22:26:22.887Z,5.67
2022-11-13T22:28:51.932Z,5.57
2022-11-13T22:31:22.358Z,5.58
2022-11-13T22:33:54.671Z,5.54
2022-11-13T22:36:25.108Z,5.59
2022-11-13T22:38:53.525Z,5.68
2022-11-13T22:41:24.630Z,5.72
2022-11-13T22:43:59.717Z,5.69
2022-11-13T22:46:29.457Z,5.60
2022-11-13T22:48:59.769Z,5.52
2022-11-13T22:51:29.555Z,5.47
2022-11-13T22:53:59.062Z,5.44
2022-11-13T22:56:30.190Z,5.38
2022-11-13T22:59:00.124Z,5.40
2022-11-13T23:01:29.665Z,5.40
2022-11-13T23:03:59.335Z,5.41
2022-11-13T23:06:28.892Z,5.41
2022-11-13T23:08:57.040Z,5.34
2022-11-13T23:11:31.383Z,5.32
2022-11-13T23:14:00.974Z,5.37
2022-11-13T23:16:30.183Z,5.41
2022-11-13T23:18:59.764Z,5.48
2022-11-13T23:21:29.429Z,5.58
2022-11-13T23:23:58.060Z,5.66
2022-11-13T23:26:27.113Z,5.72
2022-11-13T23:28:57.213Z,5.73
2022-11-13T23:31:25.558Z,5.75
2022-11-13T23:33:53.622Z,5.80
2022-11-13T23:36:21.576Z,5.79
2022-11-13T23:38:49.593Z,5.78
2022-11-13T23:41:17.546Z,5.82
2022-11-13T23:46:34.827Z,5.85
2022-11-13T23:49:02.900Z,5.87
2022-11-13T23:51:30.936Z,5.90
2022-11-13T23:53:58.882Z,5.92
2022-11-13T23:56:26.922Z,5.94
2022-11-13T23:58:54.922Z,5.95
